KNE720 OEHL-OEDF
Flight info
| Callsign | KNE720 |
|---|---|
| Flight time | 1h 3m |
| Altitude | 39000 |
| Route | HIL G662 GAS J874 MUSRI L604 UMENA |
| Aircraft | A320/M-SDE3FGHIRWY/LB1 |
Departure
| Time | 2026-04-24 22:44 |
|---|---|
| Airport | Hail International Airport (OEHL) |
Arrival
| Time | 2026-04-24 23:48 |
|---|---|
| Airport | King Fahd International Airport (OEDF) |
| Time | Latitude | Longitude | Altitude | Speed | Heading |
|---|---|---|---|---|---|
| 2026-04-24 22:30 | 27.43845 | 41.68938 | 3291 ft | 0 kts | 92° |
| 2026-04-24 22:37 | 27.43845 | 41.68925 | 3291 ft | 4 kts | 94° |
| 2026-04-24 22:38 | 27.43846 | 41.68895 | 3291 ft | 4 kts | 87° |
| 2026-04-24 22:38 | 27.43843 | 41.68865 | 3291 ft | 4 kts | 78° |
| 2026-04-24 22:38 | 27.43841 | 41.68852 | 3291 ft | 1 kts | 78° |
| 2026-04-24 22:38 | 27.43841 | 41.68851 | 3291 ft | 0 kts | 78° |
| 2026-04-24 22:40 | 27.43843 | 41.68856 | 3291 ft | 3 kts | 64° |
| 2026-04-24 22:40 | 27.43893 | 41.68862 | 3291 ft | 13 kts | 0° |
| 2026-04-24 22:40 | 27.44015 | 41.68867 | 3289 ft | 22 kts | 3° |
| 2026-04-24 22:41 | 27.44202 | 41.68881 | 3287 ft | 31 kts | 3° |
| 2026-04-24 22:41 | 27.44423 | 41.68896 | 3285 ft | 33 kts | 3° |
| 2026-04-24 22:41 | 27.44654 | 41.68910 | 3283 ft | 34 kts | 2° |
| 2026-04-24 22:41 | 27.44899 | 41.68926 | 3277 ft | 36 kts | 3° |
| 2026-04-24 22:42 | 27.45154 | 41.68943 | 3275 ft | 38 kts | 3° |
| 2026-04-24 22:42 | 27.45371 | 41.68925 | 3274 ft | 19 kts | 328° |
| 2026-04-24 22:42 | 27.45439 | 41.68852 | 3274 ft | 12 kts | 302° |
| 2026-04-24 22:42 | 27.45453 | 41.68757 | 3273 ft | 13 kts | 257° |
| 2026-04-24 22:43 | 27.45403 | 41.68734 | 3273 ft | 6 kts | 181° |
| 2026-04-24 22:43 | 27.45318 | 41.68731 | 3274 ft | 27 kts | 184° |
| 2026-04-24 22:43 | 27.44880 | 41.68699 | 3282 ft | 96 kts | 184° |
| 2026-04-24 22:43 | 27.44022 | 41.68641 | 3288 ft | 149 kts | 183° |
| 2026-04-24 22:44 | 27.42896 | 41.68561 | 3681 ft | 164 kts | 184° |
| 2026-04-24 22:44 | 27.41766 | 41.68498 | 4455 ft | 162 kts | 181° |
| 2026-04-24 22:44 | 27.40612 | 41.68752 | 4835 ft | 182 kts | 153° |
| 2026-04-24 22:44 | 27.39682 | 41.69839 | 5102 ft | 212 kts | 117° |
| 2026-04-24 22:45 | 27.39230 | 41.71529 | 5479 ft | 239 kts | 106° |
| 2026-04-24 22:45 | 27.38881 | 41.73456 | 5911 ft | 263 kts | 104° |
| 2026-04-24 22:45 | 27.38478 | 41.75509 | 6607 ft | 272 kts | 110° |
| 2026-04-24 22:45 | 27.37699 | 41.77455 | 7410 ft | 275 kts | 123° |
| 2026-04-24 22:46 | 27.36701 | 41.79320 | 8203 ft | 281 kts | 123° |
| 2026-04-24 22:46 | 27.35690 | 41.81230 | 8974 ft | 288 kts | 123° |
| 2026-04-24 22:46 | 27.34655 | 41.83193 | 9752 ft | 295 kts | 123° |
| 2026-04-24 22:46 | 27.33585 | 41.85221 | 10263 ft | 312 kts | 123° |
| 2026-04-24 22:47 | 27.32438 | 41.87393 | 10570 ft | 333 kts | 123° |
| 2026-04-24 22:47 | 27.31254 | 41.89642 | 11183 ft | 341 kts | 123° |
| 2026-04-24 22:47 | 27.30036 | 41.91959 | 11897 ft | 347 kts | 123° |
| 2026-04-24 22:47 | 27.28800 | 41.94311 | 12622 ft | 352 kts | 123° |
| 2026-04-24 22:48 | 27.27544 | 41.96700 | 13350 ft | 357 kts | 124° |
| 2026-04-24 22:48 | 27.26271 | 41.99115 | 14046 ft | 362 kts | 124° |
| 2026-04-24 22:48 | 27.24975 | 42.01564 | 14664 ft | 367 kts | 124° |
| 2026-04-24 22:48 | 27.23663 | 42.04041 | 15285 ft | 371 kts | 124° |
| 2026-04-24 22:49 | 27.22334 | 42.06548 | 15900 ft | 376 kts | 125° |
| 2026-04-24 22:49 | 27.20985 | 42.09093 | 16507 ft | 381 kts | 125° |
| 2026-04-24 22:49 | 27.19622 | 42.11665 | 17115 ft | 386 kts | 125° |
| 2026-04-24 22:49 | 27.18234 | 42.14281 | 17715 ft | 391 kts | 126° |
| 2026-04-24 22:50 | 27.16848 | 42.16935 | 18332 ft | 397 kts | 122° |
| 2026-04-24 22:50 | 27.15924 | 42.19902 | 18835 ft | 411 kts | 103° |
| 2026-04-24 22:50 | 27.15598 | 42.23111 | 19356 ft | 416 kts | 98° |
| 2026-04-24 22:50 | 27.15329 | 42.26364 | 19908 ft | 420 kts | 98° |
| 2026-04-24 22:51 | 27.15071 | 42.29606 | 20440 ft | 423 kts | 98° |
| 2026-04-24 22:51 | 27.14806 | 42.32910 | 20954 ft | 428 kts | 98° |
| 2026-04-24 22:51 | 27.14532 | 42.36256 | 21500 ft | 431 kts | 98° |
| 2026-04-24 22:51 | 27.14251 | 42.39626 | 22031 ft | 435 kts | 98° |
| 2026-04-24 22:52 | 27.13965 | 42.43024 | 22554 ft | 439 kts | 99° |
| 2026-04-24 22:52 | 27.13676 | 42.46465 | 23093 ft | 443 kts | 99° |
| 2026-04-24 22:52 | 27.13386 | 42.49930 | 23612 ft | 447 kts | 99° |
| 2026-04-24 22:52 | 27.13097 | 42.53365 | 24034 ft | 450 kts | 99° |
| 2026-04-24 22:53 | 27.12798 | 42.56885 | 24459 ft | 454 kts | 99° |
| 2026-04-24 22:53 | 27.12495 | 42.60426 | 24880 ft | 457 kts | 99° |
| 2026-04-24 22:53 | 27.12189 | 42.63984 | 25288 ft | 460 kts | 99° |
| 2026-04-24 22:53 | 27.11882 | 42.67577 | 25700 ft | 463 kts | 99° |
| 2026-04-24 22:54 | 27.11574 | 42.71189 | 26097 ft | 466 kts | 99° |
| 2026-04-24 22:54 | 27.11264 | 42.74820 | 26487 ft | 469 kts | 100° |
| 2026-04-24 22:54 | 27.10947 | 42.78475 | 26878 ft | 472 kts | 100° |
| 2026-04-24 22:54 | 27.10624 | 42.82158 | 27248 ft | 475 kts | 100° |
| 2026-04-24 22:55 | 27.10298 | 42.85857 | 27621 ft | 478 kts | 100° |
| 2026-04-24 22:55 | 27.09971 | 42.89580 | 27998 ft | 481 kts | 100° |
| 2026-04-24 22:55 | 27.09645 | 42.93326 | 28359 ft | 484 kts | 100° |
| 2026-04-24 22:55 | 27.09323 | 42.97040 | 28707 ft | 487 kts | 100° |
| 2026-04-24 22:56 | 27.08991 | 43.00832 | 29045 ft | 489 kts | 101° |
| 2026-04-24 22:56 | 27.08655 | 43.04647 | 29387 ft | 492 kts | 101° |
| 2026-04-24 22:56 | 27.08315 | 43.08479 | 29734 ft | 495 kts | 101° |
| 2026-04-24 22:56 | 27.07971 | 43.12331 | 30066 ft | 497 kts | 101° |
| 2026-04-24 22:57 | 27.07625 | 43.16202 | 30339 ft | 500 kts | 101° |
| 2026-04-24 22:57 | 27.07275 | 43.20091 | 30600 ft | 502 kts | 101° |
| 2026-04-24 22:57 | 27.06923 | 43.24002 | 30858 ft | 505 kts | 101° |
| 2026-04-24 22:57 | 27.06567 | 43.27929 | 31109 ft | 507 kts | 101° |
| 2026-04-24 22:58 | 27.06211 | 43.31877 | 31356 ft | 509 kts | 101° |
| 2026-04-24 22:58 | 27.05854 | 43.35835 | 31601 ft | 512 kts | 101° |
| 2026-04-24 22:58 | 27.05496 | 43.39806 | 31933 ft | 511 kts | 101° |
| 2026-04-24 22:58 | 27.05137 | 43.43777 | 32271 ft | 511 kts | 101° |
| 2026-04-24 22:59 | 27.04777 | 43.47745 | 32604 ft | 511 kts | 101° |
| 2026-04-24 22:59 | 27.04416 | 43.51667 | 32934 ft | 511 kts | 101° |
| 2026-04-24 22:59 | 27.03679 | 43.59603 | 33588 ft | 511 kts | 101° |
| 2026-04-24 23:00 | 27.03314 | 43.63572 | 33918 ft | 512 kts | 101° |
| 2026-04-24 23:00 | 27.02946 | 43.67541 | 34211 ft | 512 kts | 101° |
| 2026-04-24 23:00 | 27.02577 | 43.71516 | 34488 ft | 512 kts | 101° |
| 2026-04-24 23:00 | 27.02207 | 43.75500 | 34770 ft | 512 kts | 101° |
| 2026-04-24 23:01 | 27.01839 | 43.79424 | 35038 ft | 512 kts | 101° |
| 2026-04-24 23:01 | 27.01465 | 43.83392 | 35301 ft | 511 kts | 101° |
| 2026-04-24 23:01 | 27.01091 | 43.87356 | 35555 ft | 512 kts | 101° |
| 2026-04-24 23:01 | 27.00715 | 43.91324 | 35799 ft | 512 kts | 101° |
| 2026-04-24 23:02 | 27.00336 | 43.95298 | 36041 ft | 512 kts | 101° |
| 2026-04-24 23:02 | 26.99957 | 43.99268 | 36264 ft | 512 kts | 101° |
| 2026-04-24 23:02 | 26.99578 | 44.03244 | 36480 ft | 512 kts | 101° |
| 2026-04-24 23:02 | 26.99201 | 44.07213 | 36698 ft | 512 kts | 101° |
| 2026-04-24 23:03 | 26.98823 | 44.11189 | 36913 ft | 513 kts | 101° |
| 2026-04-24 23:03 | 26.98441 | 44.15170 | 37132 ft | 512 kts | 101° |
| 2026-04-24 23:03 | 26.98057 | 44.19143 | 37358 ft | 512 kts | 101° |
| 2026-04-24 23:03 | 26.97671 | 44.23110 | 37569 ft | 512 kts | 101° |
| 2026-04-24 23:04 | 26.97289 | 44.27033 | 37755 ft | 513 kts | 101° |
| 2026-04-24 23:04 | 26.96903 | 44.31006 | 37939 ft | 513 kts | 101° |
| 2026-04-24 23:04 | 26.96511 | 44.35036 | 38139 ft | 513 kts | 101° |
| 2026-04-24 23:04 | 26.96127 | 44.38961 | 38320 ft | 513 kts | 101° |
| 2026-04-24 23:05 | 26.95737 | 44.42933 | 38512 ft | 513 kts | 101° |
| 2026-04-24 23:05 | 26.95344 | 44.46914 | 38677 ft | 513 kts | 101° |
| 2026-04-24 23:05 | 26.94948 | 44.50890 | 38821 ft | 513 kts | 101° |
| 2026-04-24 23:05 | 26.94553 | 44.54865 | 38962 ft | 514 kts | 101° |
| 2026-04-24 23:06 | 26.94158 | 44.58844 | 39004 ft | 515 kts | 101° |
| 2026-04-24 23:06 | 26.93369 | 44.66823 | 39008 ft | 515 kts | 101° |
| 2026-04-24 23:07 | 26.92556 | 44.74806 | 39010 ft | 515 kts | 101° |
| 2026-04-24 23:07 | 26.91743 | 44.82786 | 39013 ft | 515 kts | 101° |
| 2026-04-24 23:08 | 26.90939 | 44.90754 | 39015 ft | 515 kts | 101° |
| 2026-04-24 23:08 | 26.90133 | 44.98680 | 39019 ft | 515 kts | 101° |
| 2026-04-24 23:09 | 26.89323 | 45.06655 | 39028 ft | 515 kts | 101° |
| 2026-04-24 23:09 | 26.88500 | 45.14628 | 39029 ft | 515 kts | 101° |
| 2026-04-24 23:10 | 26.87672 | 45.22602 | 39034 ft | 515 kts | 101° |
| 2026-04-24 23:10 | 26.86836 | 45.30588 | 39047 ft | 516 kts | 101° |
| 2026-04-24 23:11 | 26.85990 | 45.38564 | 39039 ft | 516 kts | 101° |
| 2026-04-24 23:11 | 26.85145 | 45.46552 | 39043 ft | 516 kts | 101° |
| 2026-04-24 23:12 | 26.84300 | 45.54531 | 39045 ft | 516 kts | 101° |
| 2026-04-24 23:12 | 26.83457 | 45.62469 | 39046 ft | 516 kts | 101° |
| 2026-04-24 23:13 | 26.82599 | 45.70454 | 39049 ft | 517 kts | 101° |
| 2026-04-24 23:13 | 26.81733 | 45.78445 | 39049 ft | 517 kts | 101° |
| 2026-04-24 23:14 | 26.80863 | 45.86426 | 39055 ft | 517 kts | 101° |
| 2026-04-24 23:14 | 26.79993 | 45.94421 | 39053 ft | 517 kts | 101° |
| 2026-04-24 23:15 | 26.79116 | 46.02402 | 39060 ft | 516 kts | 101° |
| 2026-04-24 23:15 | 26.78237 | 46.10379 | 39060 ft | 516 kts | 101° |
| 2026-04-24 23:16 | 26.77364 | 46.18296 | 39066 ft | 516 kts | 101° |
| 2026-04-24 23:16 | 26.76476 | 46.26260 | 39066 ft | 515 kts | 101° |
| 2026-04-24 23:17 | 26.75578 | 46.34217 | 39063 ft | 515 kts | 101° |
| 2026-04-24 23:17 | 26.74682 | 46.42169 | 39063 ft | 515 kts | 101° |
| 2026-04-24 23:18 | 26.73788 | 46.50125 | 39065 ft | 515 kts | 101° |
| 2026-04-24 23:18 | 26.73038 | 46.56733 | 39062 ft | 515 kts | 101° |
| 2026-04-24 23:19 | 26.72128 | 46.64677 | 39072 ft | 514 kts | 101° |
| 2026-04-24 23:19 | 26.71491 | 46.72640 | 39065 ft | 517 kts | 92° |
| 2026-04-24 23:20 | 26.71585 | 46.80689 | 39071 ft | 517 kts | 91° |
| 2026-04-24 23:20 | 26.71684 | 46.88741 | 39064 ft | 517 kts | 91° |
| 2026-04-24 23:21 | 26.71781 | 46.96650 | 39060 ft | 517 kts | 91° |
| 2026-04-24 23:21 | 26.71879 | 47.04575 | 39055 ft | 504 kts | 92° |
| 2026-04-24 23:22 | 26.71967 | 47.12374 | 39055 ft | 499 kts | 92° |
| 2026-04-24 23:22 | 26.72037 | 47.20115 | 39053 ft | 497 kts | 92° |
| 2026-04-24 23:23 | 26.72110 | 47.27838 | 39054 ft | 496 kts | 92° |
| 2026-04-24 23:23 | 26.72179 | 47.35541 | 38736 ft | 494 kts | 92° |
| 2026-04-24 23:23 | 26.72212 | 47.39375 | 38465 ft | 492 kts | 92° |
| 2026-04-24 23:24 | 26.72244 | 47.43204 | 38187 ft | 491 kts | 92° |
| 2026-04-24 23:24 | 26.72276 | 47.47024 | 37920 ft | 491 kts | 92° |
| 2026-04-24 23:24 | 26.72305 | 47.50848 | 37645 ft | 492 kts | 92° |
| 2026-04-24 23:24 | 26.72333 | 47.54624 | 37383 ft | 492 kts | 92° |
| 2026-04-24 23:25 | 26.72361 | 47.58451 | 37123 ft | 492 kts | 92° |
| 2026-04-24 23:25 | 26.72387 | 47.62325 | 36767 ft | 493 kts | 92° |
| 2026-04-24 23:25 | 26.72411 | 47.66169 | 36062 ft | 494 kts | 92° |
| 2026-04-24 23:25 | 26.72435 | 47.69945 | 35533 ft | 490 kts | 92° |
| 2026-04-24 23:26 | 26.72462 | 47.73747 | 34937 ft | 489 kts | 92° |
| 2026-04-24 23:26 | 26.72489 | 47.77547 | 34350 ft | 488 kts | 92° |
| 2026-04-24 23:26 | 26.72514 | 47.81343 | 33727 ft | 487 kts | 92° |
| 2026-04-24 23:26 | 26.72535 | 47.85110 | 33127 ft | 484 kts | 92° |
| 2026-04-24 23:27 | 26.72555 | 47.88865 | 32547 ft | 481 kts | 91° |
| 2026-04-24 23:27 | 26.72574 | 47.92601 | 31969 ft | 478 kts | 91° |
| 2026-04-24 23:27 | 26.72591 | 47.96311 | 31399 ft | 476 kts | 91° |
| 2026-04-24 23:27 | 26.72606 | 48.00002 | 30847 ft | 473 kts | 91° |
| 2026-04-24 23:28 | 26.72617 | 48.03672 | 30288 ft | 471 kts | 91° |
| 2026-04-24 23:28 | 26.72627 | 48.07328 | 29709 ft | 469 kts | 91° |
| 2026-04-24 23:28 | 26.72638 | 48.10951 | 29189 ft | 464 kts | 91° |
| 2026-04-24 23:28 | 26.72651 | 48.14568 | 28668 ft | 459 kts | 91° |
| 2026-04-24 23:29 | 26.72664 | 48.18120 | 28165 ft | 455 kts | 91° |
| 2026-04-24 23:29 | 26.72676 | 48.21649 | 27661 ft | 452 kts | 91° |
| 2026-04-24 23:29 | 26.72688 | 48.25147 | 27146 ft | 449 kts | 92° |
| 2026-04-24 23:29 | 26.72698 | 48.28632 | 26630 ft | 446 kts | 92° |
| 2026-04-24 23:30 | 26.72707 | 48.32054 | 26105 ft | 445 kts | 92° |
| 2026-04-24 23:30 | 26.72715 | 48.35509 | 25564 ft | 444 kts | 92° |
| 2026-04-24 23:30 | 26.72719 | 48.38959 | 25070 ft | 442 kts | 92° |
| 2026-04-24 23:30 | 26.72721 | 48.42386 | 24507 ft | 442 kts | 92° |
| 2026-04-24 23:31 | 26.72725 | 48.45799 | 24189 ft | 435 kts | 92° |
| 2026-04-24 23:31 | 26.72727 | 48.49173 | 23738 ft | 433 kts | 92° |
| 2026-04-24 23:31 | 26.72727 | 48.52534 | 23245 ft | 430 kts | 92° |
| 2026-04-24 23:31 | 26.72727 | 48.55859 | 22761 ft | 426 kts | 93° |
| 2026-04-24 23:32 | 26.72729 | 48.59166 | 22309 ft | 422 kts | 93° |
| 2026-04-24 23:32 | 26.72731 | 48.62435 | 21872 ft | 418 kts | 93° |
| 2026-04-24 23:32 | 26.72731 | 48.65676 | 21440 ft | 414 kts | 93° |
| 2026-04-24 23:32 | 26.72727 | 48.68888 | 21002 ft | 410 kts | 94° |
| 2026-04-24 23:33 | 26.72723 | 48.72058 | 20584 ft | 407 kts | 94° |
| 2026-04-24 23:33 | 26.72721 | 48.75211 | 20174 ft | 403 kts | 94° |
| 2026-04-24 23:33 | 26.72720 | 48.78326 | 19768 ft | 399 kts | 94° |
| 2026-04-24 23:33 | 26.72718 | 48.81419 | 19368 ft | 396 kts | 94° |
| 2026-04-24 23:34 | 26.72714 | 48.84485 | 18969 ft | 393 kts | 94° |
| 2026-04-24 23:34 | 26.72707 | 48.87487 | 18592 ft | 389 kts | 94° |
| 2026-04-24 23:34 | 26.72699 | 48.90505 | 18196 ft | 386 kts | 94° |
| 2026-04-24 23:34 | 26.72693 | 48.93494 | 17761 ft | 383 kts | 94° |
| 2026-04-24 23:35 | 26.72687 | 48.96466 | 17344 ft | 379 kts | 94° |
| 2026-04-24 23:35 | 26.72681 | 48.99405 | 16936 ft | 376 kts | 94° |
| 2026-04-24 23:35 | 26.72671 | 49.02324 | 16542 ft | 373 kts | 94° |
| 2026-04-24 23:35 | 26.72661 | 49.05213 | 16155 ft | 370 kts | 94° |
| 2026-04-24 23:36 | 26.72652 | 49.08079 | 15780 ft | 366 kts | 94° |
| 2026-04-24 23:36 | 26.72645 | 49.10920 | 15395 ft | 363 kts | 94° |
| 2026-04-24 23:36 | 26.72634 | 49.13732 | 15031 ft | 360 kts | 94° |
| 2026-04-24 23:36 | 26.72622 | 49.16523 | 14656 ft | 357 kts | 94° |
| 2026-04-24 23:37 | 26.72612 | 49.19232 | 14048 ft | 350 kts | 94° |
| 2026-04-24 23:37 | 26.72602 | 49.21945 | 13320 ft | 346 kts | 94° |
| 2026-04-24 23:37 | 26.72578 | 49.27250 | 11823 ft | 337 kts | 94° |
| 2026-04-24 23:38 | 26.72565 | 49.29850 | 11095 ft | 332 kts | 94° |
| 2026-04-24 23:38 | 26.72552 | 49.32416 | 10386 ft | 328 kts | 93° |
| 2026-04-24 23:38 | 26.72538 | 49.34947 | 9721 ft | 322 kts | 93° |
| 2026-04-24 23:38 | 26.72527 | 49.37391 | 9289 ft | 308 kts | 93° |
| 2026-04-24 23:39 | 26.72515 | 49.39756 | 8686 ft | 301 kts | 93° |
| 2026-04-24 23:39 | 26.72499 | 49.42061 | 8182 ft | 291 kts | 92° |
| 2026-04-24 23:39 | 26.72484 | 49.44284 | 7763 ft | 280 kts | 92° |
| 2026-04-24 23:39 | 26.72472 | 49.46426 | 7361 ft | 269 kts | 92° |
| 2026-04-24 23:40 | 26.72459 | 49.48492 | 6959 ft | 264 kts | 91° |
| 2026-04-24 23:40 | 26.72445 | 49.50545 | 6554 ft | 263 kts | 91° |
| 2026-04-24 23:40 | 26.72430 | 49.52560 | 6146 ft | 262 kts | 91° |
| 2026-04-24 23:40 | 26.72415 | 49.54610 | 5725 ft | 265 kts | 90° |
| 2026-04-24 23:41 | 26.72402 | 49.56670 | 5335 ft | 264 kts | 89° |
| 2026-04-24 23:41 | 26.72391 | 49.58663 | 5263 ft | 249 kts | 89° |
| 2026-04-24 23:41 | 26.72380 | 49.60449 | 5182 ft | 238 kts | 89° |
| 2026-04-24 23:41 | 26.72368 | 49.62281 | 5088 ft | 232 kts | 89° |
| 2026-04-24 23:42 | 26.72354 | 49.64081 | 4997 ft | 230 kts | 89° |
| 2026-04-24 23:42 | 26.72338 | 49.65848 | 4912 ft | 230 kts | 89° |
| 2026-04-24 23:42 | 26.72300 | 49.67638 | 4744 ft | 232 kts | 95° |
| 2026-04-24 23:42 | 26.71838 | 49.69357 | 4542 ft | 231 kts | 117° |
| 2026-04-24 23:43 | 26.70908 | 49.70737 | 4349 ft | 225 kts | 138° |
| 2026-04-24 23:43 | 26.69599 | 49.71681 | 4109 ft | 221 kts | 161° |
| 2026-04-24 23:43 | 26.68138 | 49.72170 | 3846 ft | 219 kts | 167° |
| 2026-04-24 23:43 | 26.66663 | 49.72625 | 3561 ft | 220 kts | 167° |
| 2026-04-24 23:44 | 26.65188 | 49.73082 | 3290 ft | 221 kts | 167° |
| 2026-04-24 23:44 | 26.63701 | 49.73543 | 2999 ft | 222 kts | 167° |
| 2026-04-24 23:44 | 26.62213 | 49.74004 | 2715 ft | 222 kts | 167° |
| 2026-04-24 23:44 | 26.60724 | 49.74465 | 2429 ft | 222 kts | 166° |
| 2026-04-24 23:45 | 26.59230 | 49.74928 | 2132 ft | 223 kts | 166° |
| 2026-04-24 23:45 | 26.57731 | 49.75392 | 1853 ft | 224 kts | 166° |
| 2026-04-24 23:45 | 26.56260 | 49.75848 | 1560 ft | 217 kts | 165° |
| 2026-04-24 23:45 | 26.54996 | 49.76239 | 1312 ft | 208 kts | 166° |
| 2026-04-24 23:46 | 26.53619 | 49.76665 | 1048 ft | 204 kts | 166° |
| 2026-04-24 23:46 | 26.52289 | 49.77077 | 816 ft | 193 kts | 166° |
| 2026-04-24 23:46 | 26.51035 | 49.77465 | 552 ft | 181 kts | 166° |
| 2026-04-24 23:46 | 26.49874 | 49.77818 | 355 ft | 166 kts | 166° |
| 2026-04-24 23:47 | 26.48804 | 49.78152 | 125 ft | 154 kts | 165° |
| 2026-04-24 23:47 | 26.47860 | 49.78445 | 86 ft | 120 kts | 164° |
| 2026-04-24 23:47 | 26.47219 | 49.78642 | 91 ft | 71 kts | 164° |
| 2026-04-24 23:47 | 26.46822 | 49.78760 | 88 ft | 54 kts | 165° |
| 2026-04-24 23:48 | 26.46559 | 49.78938 | 86 ft | 40 kts | 134° |
| 2026-04-24 23:48 | 26.46394 | 49.79158 | 85 ft | 29 kts | 105° |
| 2026-04-24 23:48 | 26.46431 | 49.79330 | 88 ft | 23 kts | 71° |
| 2026-04-24 23:48 | 26.46462 | 49.79474 | 85 ft | 13 kts | 103° |
| 2026-04-24 23:49 | 26.46391 | 49.79506 | 88 ft | 11 kts | 175° |
| 2026-04-24 23:49 | 26.46317 | 49.79512 | 86 ft | 10 kts | 175° |
| 2026-04-24 23:49 | 26.46267 | 49.79479 | 89 ft | 8 kts | 252° |
| 2026-04-24 23:49 | 26.46267 | 49.79424 | 85 ft | 2 kts | 266° |
| 2026-04-24 23:50 | 26.46266 | 49.79418 | 85 ft | 0 kts | 266° |